sensor_id;sensor_type;location;lat;lon;timestamp;temperature;humidity
47521;DHT22;32291;52.010;4.446;2024-01-10T00:00:42;-4.40;1.00
47521;DHT22;32291;52.010;4.446;2024-01-10T00:01:44;-4.40;1.00
47521;DHT22;32291;52.010;4.446;2024-01-10T00:02:46;-4.40;1.00
47521;DHT22;32291;52.010;4.446;2024-01-10T00:03:54;-4.40;1.00
47521;DHT22;32291;52.010;4.446;2024-01-10T00:05:01;-4.40;1.00
47521;DHT22;32291;52.010;4.446;2024-01-10T00:06:03;-4.40;1.00
47521;DHT22;32291;52.010;4.446;2024-01-10T00:07:10;-4.40;1.00
47521;DHT22;32291;52.010;4.446;2024-01-10T00:08:17;-4.40;1.00
47521;DHT22;32291;52.010;4.446;2024-01-10T00:09:19;-4.40;1.00
47521;DHT22;32291;52.010;4.446;2024-01-10T00:10:26;-4.40;1.00
47521;DHT22;32291;52.010;4.446;2024-01-10T00:11:29;-4.40;1.00
47521;DHT22;32291;52.010;4.446;2024-01-10T00:12:36;-4.40;1.00
47521;DHT22;32291;52.010;4.446;2024-01-10T00:13:43;-4.50;1.00
47521;DHT22;32291;52.010;4.446;2024-01-10T00:14:45;-4.50;1.00
47521;DHT22;32291;52.010;4.446;2024-01-10T00:15:52;-4.50;1.00
47521;DHT22;32291;52.010;4.446;2024-01-10T00:16:59;-4.50;1.00
47521;DHT22;32291;52.010;4.446;2024-01-10T00:18:06;-4.50;1.00
47521;DHT22;32291;52.010;4.446;2024-01-10T00:19:08;-4.50;1.00
47521;DHT22;32291;52.010;4.446;2024-01-10T00:20:10;-4.50;1.00
47521;DHT22;32291;52.010;4.446;2024-01-10T00:21:13;-4.50;1.00
47521;DHT22;32291;52.010;4.446;2024-01-10T00:22:20;-4.50;1.00
47521;DHT22;32291;52.010;4.446;2024-01-10T00:23:26;-4.50;1.00
47521;DHT22;32291;52.010;4.446;2024-01-10T00:24:29;-4.50;1.00
47521;DHT22;32291;52.010;4.446;2024-01-10T00:25:35;-4.40;1.00
47521;DHT22;32291;52.010;4.446;2024-01-10T00:26:40;-4.40;1.00
47521;DHT22;32291;52.010;4.446;2024-01-10T00:27:47;-4.50;1.00
47521;DHT22;32291;52.010;4.446;2024-01-10T00:28:49;-4.40;1.00
47521;DHT22;32291;52.010;4.446;2024-01-10T00:30:09;-4.40;1.00
47521;DHT22;32291;52.010;4.446;2024-01-10T00:31:14;-4.40;1.00
47521;DHT22;32291;52.010;4.446;2024-01-10T00:32:21;-4.40;1.00
47521;DHT22;32291;52.010;4.446;2024-01-10T00:33:28;-4.40;1.00
47521;DHT22;32291;52.010;4.446;2024-01-10T00:34:35;-4.30;1.00
47521;DHT22;32291;52.010;4.446;2024-01-10T00:35:42;-4.40;1.00
47521;DHT22;32291;52.010;4.446;2024-01-10T00:36:49;-4.40;1.00
47521;DHT22;32291;52.010;4.446;2024-01-10T00:37:56;-4.40;1.00
47521;DHT22;32291;52.010;4.446;2024-01-10T00:38:58;-4.40;1.00
47521;DHT22;32291;52.010;4.446;2024-01-10T00:40:06;-4.40;1.00
47521;DHT22;32291;52.010;4.446;2024-01-10T00:41:09;-4.50;1.00
47521;DHT22;32291;52.010;4.446;2024-01-10T00:42:18;-4.50;1.00
47521;DHT22;32291;52.010;4.446;2024-01-10T00:43:25;-4.50;1.00
47521;DHT22;32291;52.010;4.446;2024-01-10T00:44:32;-4.50;1.00
47521;DHT22;32291;52.010;4.446;2024-01-10T00:45:39;-4.50;1.00
47521;DHT22;32291;52.010;4.446;2024-01-10T00:46:41;-4.50;1.00
47521;DHT22;32291;52.010;4.446;2024-01-10T00:47:50;-4.50;1.00
47521;DHT22;32291;52.010;4.446;2024-01-10T00:48:57;-4.50;1.00
47521;DHT22;32291;52.010;4.446;2024-01-10T00:49:59;-4.50;1.00
47521;DHT22;32291;52.010;4.446;2024-01-10T00:51:06;-4.50;1.00
47521;DHT22;32291;52.010;4.446;2024-01-10T00:52:15;-4.50;1.00
47521;DHT22;32291;52.010;4.446;2024-01-10T00:53:22;-4.60;1.00
47521;DHT22;32291;52.010;4.446;2024-01-10T00:54:29;-4.60;1.00
47521;DHT22;32291;52.010;4.446;2024-01-10T00:55:31;-4.60;1.00
47521;DHT22;32291;52.010;4.446;2024-01-10T00:56:38;-4.60;1.00
47521;DHT22;32291;52.010;4.446;2024-01-10T00:57:45;-4.60;1.00
47521;DHT22;32291;52.010;4.446;2024-01-10T00:58:52;-4.60;1.00
47521;DHT22;32291;52.010;4.446;2024-01-10T01:00:06;-4.60;1.00
47521;DHT22;32291;52.010;4.446;2024-01-10T01:01:09;-4.60;1.00
47521;DHT22;32291;52.010;4.446;2024-01-10T01:02:16;-4.60;1.00
47521;DHT22;32291;52.010;4.446;2024-01-10T01:03:18;-4.60;1.00
47521;DHT22;32291;52.010;4.446;2024-01-10T01:04:25;-4.60;1.00
47521;DHT22;32291;52.010;4.446;2024-01-10T01:05:27;-4.60;1.00
47521;DHT22;32291;52.010;4.446;2024-01-10T01:06:34;-4.70;1.00
47521;DHT22;32291;52.010;4.446;2024-01-10T01:07:41;-4.60;1.00
47521;DHT22;32291;52.010;4.446;2024-01-10T01:08:48;-4.60;1.00
47521;DHT22;32291;52.010;4.446;2024-01-10T01:09:55;-4.60;1.00
47521;DHT22;32291;52.010;4.446;2024-01-10T01:11:03;-4.60;1.00
47521;DHT22;32291;52.010;4.446;2024-01-10T01:12:10;-4.60;1.00
47521;DHT22;32291;52.010;4.446;2024-01-10T01:13:17;-4.60;1.00
47521;DHT22;32291;52.010;4.446;2024-01-10T01:14:21;-4.60;1.00
47521;DHT22;32291;52.010;4.446;2024-01-10T01:15:28;-4.60;1.00
47521;DHT22;32291;52.010;4.446;2024-01-10T01:16:31;-4.60;1.00
47521;DHT22;32291;52.010;4.446;2024-01-10T01:17:38;-4.60;1.00
47521;DHT22;32291;52.010;4.446;2024-01-10T01:18:47;-4.60;1.00
47521;DHT22;32291;52.010;4.446;2024-01-10T01:19:52;-4.60;1.00
47521;DHT22;32291;52.010;4.446;2024-01-10T01:20:54;-4.60;1.00
47521;DHT22;32291;52.010;4.446;2024-01-10T01:22:01;-4.60;1.00
47521;DHT22;32291;52.010;4.446;2024-01-10T01:23:04;-4.70;1.00
47521;DHT22;32291;52.010;4.446;2024-01-10T01:24:10;-4.70;1.00
47521;DHT22;32291;52.010;4.446;2024-01-10T01:25:17;-4.70;1.00
47521;DHT22;32291;52.010;4.446;2024-01-10T01:26:25;-4.70;1.00
47521;DHT22;32291;52.010;4.446;2024-01-10T01:27:27;-4.70;1.00
47521;DHT22;32291;52.010;4.446;2024-01-10T01:28:30;-4.70;1.00
47521;DHT22;32291;52.010;4.446;2024-01-10T01:29:36;-4.70;1.00
47521;DHT22;32291;52.010;4.446;2024-01-10T01:30:39;-4.70;1.00
47521;DHT22;32291;52.010;4.446;2024-01-10T01:31:46;-4.70;1.00
47521;DHT22;32291;52.010;4.446;2024-01-10T01:32:54;-4.80;1.00
47521;DHT22;32291;52.010;4.446;2024-01-10T01:34:01;-4.70;1.00
47521;DHT22;32291;52.010;4.446;2024-01-10T01:35:08;-4.80;1.00
47521;DHT22;32291;52.010;4.446;2024-01-10T01:36:15;-4.70;1.00
47521;DHT22;32291;52.010;4.446;2024-01-10T01:37:22;-4.80;1.00
47521;DHT22;32291;52.010;4.446;2024-01-10T01:38:29;-4.80;1.00
47521;DHT22;32291;52.010;4.446;2024-01-10T01:39:35;-4.80;1.00
47521;DHT22;32291;52.010;4.446;2024-01-10T01:40:44;-4.90;1.00
47521;DHT22;32291;52.010;4.446;2024-01-10T01:41:51;-4.90;1.00
47521;DHT22;32291;52.010;4.446;2024-01-10T01:42:58;-4.80;1.00
47521;DHT22;32291;52.010;4.446;2024-01-10T01:44:05;-5.00;1.00
47521;DHT22;32291;52.010;4.446;2024-01-10T01:45:12;-5.00;1.00
47521;DHT22;32291;52.010;4.446;2024-01-10T01:46:19;-5.00;1.00
47521;DHT22;32291;52.010;4.446;2024-01-10T01:47:26;-5.00;1.00
47521;DHT22;32291;52.010;4.446;2024-01-10T01:48:29;-5.00;1.00
47521;DHT22;32291;52.010;4.446;2024-01-10T01:49:36;-5.00;1.00
47521;DHT22;32291;52.010;4.446;2024-01-10T01:50:44;-4.90;1.00
47521;DHT22;32291;52.010;4.446;2024-01-10T01:51:52;-5.00;1.00
47521;DHT22;32291;52.010;4.446;2024-01-10T01:52:59;-5.00;1.00
47521;DHT22;32291;52.010;4.446;2024-01-10T01:54:08;-5.00;1.00
47521;DHT22;32291;52.010;4.446;2024-01-10T01:55:11;-5.00;1.00
47521;DHT22;32291;52.010;4.446;2024-01-10T01:56:13;-5.00;1.00
47521;DHT22;32291;52.010;4.446;2024-01-10T01:57:21;-5.00;1.00
47521;DHT22;32291;52.010;4.446;2024-01-10T01:58:28;-5.10;1.00
47521;DHT22;32291;52.010;4.446;2024-01-10T01:59:35;-5.00;1.00
47521;DHT22;32291;52.010;4.446;2024-01-10T02:00:42;-5.00;1.00
47521;DHT22;32291;52.010;4.446;2024-01-10T02:01:52;-5.10;1.00
47521;DHT22;32291;52.010;4.446;2024-01-10T02:03:02;-5.00;1.00
47521;DHT22;32291;52.010;4.446;2024-01-10T02:04:11;-5.00;1.00
47521;DHT22;32291;52.010;4.446;2024-01-10T02:05:18;-5.00;1.00
47521;DHT22;32291;52.010;4.446;2024-01-10T02:06:25;-5.00;1.00
47521;DHT22;32291;52.010;4.446;2024-01-10T02:07:32;-5.00;1.00
47521;DHT22;32291;52.010;4.446;2024-01-10T02:08:39;-5.10;1.00
47521;DHT22;32291;52.010;4.446;2024-01-10T02:09:46;-5.00;1.00
47521;DHT22;32291;52.010;4.446;2024-01-10T02:10:48;-5.00;1.00
47521;DHT22;32291;52.010;4.446;2024-01-10T02:11:55;-5.00;1.00
47521;DHT22;32291;52.010;4.446;2024-01-10T02:12:57;-5.00;1.00
47521;DHT22;32291;52.010;4.446;2024-01-10T02:14:00;-5.10;1.00
47521;DHT22;32291;52.010;4.446;2024-01-10T02:15:09;-5.10;1.00
47521;DHT22;32291;52.010;4.446;2024-01-10T02:16:17;-5.00;2.50
47521;DHT22;32291;52.010;4.446;2024-01-10T02:17:24;-5.00;4.20
47521;DHT22;32291;52.010;4.446;2024-01-10T02:18:31;-5.00;3.00
47521;DHT22;32291;52.010;4.446;2024-01-10T02:19:39;-5.00;3.70
47521;DHT22;32291;52.010;4.446;2024-01-10T02:20:45;-5.00;3.70
47521;DHT22;32291;52.010;4.446;2024-01-10T02:21:52;-5.00;3.50
47521;DHT22;32291;52.010;4.446;2024-01-10T02:22:54;-5.00;4.10
47521;DHT22;32291;52.010;4.446;2024-01-10T02:23:56;-4.90;5.30
47521;DHT22;32291;52.010;4.446;2024-01-10T02:24:58;-5.00;4.20
47521;DHT22;32291;52.010;4.446;2024-01-10T02:26:05;-4.90;5.50
47521;DHT22;32291;52.010;4.446;2024-01-10T02:27:13;-4.90;3.70
47521;DHT22;32291;52.010;4.446;2024-01-10T02:28:20;-4.90;3.90
47521;DHT22;32291;52.010;4.446;2024-01-10T02:29:22;-4.90;2.80
47521;DHT22;32291;52.010;4.446;2024-01-10T02:30:30;-5.00;2.20
47521;DHT22;32291;52.010;4.446;2024-01-10T02:31:37;-5.00;3.00
47521;DHT22;32291;52.010;4.446;2024-01-10T02:32:40;-5.00;1.40
47521;DHT22;32291;52.010;4.446;2024-01-10T02:33:42;-5.00;1.00
47521;DHT22;32291;52.010;4.446;2024-01-10T02:34:49;-5.10;1.00
47521;DHT22;32291;52.010;4.446;2024-01-10T02:35:56;-5.10;1.00
47521;DHT22;32291;52.010;4.446;2024-01-10T02:37:03;-5.10;1.00
47521;DHT22;32291;52.010;4.446;2024-01-10T02:38:06;-5.10;2.00
47521;DHT22;32291;52.010;4.446;2024-01-10T02:39:08;-5.10;2.10
47521;DHT22;32291;52.010;4.446;2024-01-10T02:40:10;-5.10;4.40
47521;DHT22;32291;52.010;4.446;2024-01-10T02:41:18;-5.20;4.10
47521;DHT22;32291;52.010;4.446;2024-01-10T02:42:25;-5.20;2.40
47521;DHT22;32291;52.010;4.446;2024-01-10T02:43:29;-5.20;6.30
47521;DHT22;32291;52.010;4.446;2024-01-10T02:44:31;-5.20;9.70
47521;DHT22;32291;52.010;4.446;2024-01-10T02:45:38;-5.20;10.20
47521;DHT22;32291;52.010;4.446;2024-01-10T02:46:45;-5.20;9.40
47521;DHT22;32291;52.010;4.446;2024-01-10T02:47:51;-5.20;9.00
47521;DHT22;32291;52.010;4.446;2024-01-10T02:48:58;-5.20;9.50
47521;DHT22;32291;52.010;4.446;2024-01-10T02:50:06;-5.30;10.60
47521;DHT22;32291;52.010;4.446;2024-01-10T02:51:13;-5.30;11.00
47521;DHT22;32291;52.010;4.446;2024-01-10T02:52:15;-5.20;12.40
47521;DHT22;32291;52.010;4.446;2024-01-10T02:53:22;-5.30;15.50
47521;DHT22;32291;52.010;4.446;2024-01-10T02:54:29;-5.30;17.00
47521;DHT22;32291;52.010;4.446;2024-01-10T02:55:36;-5.30;20.60
47521;DHT22;32291;52.010;4.446;2024-01-10T02:56:38;-5.30;21.30
47521;DHT22;32291;52.010;4.446;2024-01-10T02:57:40;-5.30;17.20
47521;DHT22;32291;52.010;4.446;2024-01-10T02:58:47;-5.30;18.30
47521;DHT22;32291;52.010;4.446;2024-01-10T02:59:55;-5.30;17.20
47521;DHT22;32291;52.010;4.446;2024-01-10T03:01:02;-5.30;18.60
47521;DHT22;32291;52.010;4.446;2024-01-10T03:02:09;-5.40;18.20
47521;DHT22;32291;52.010;4.446;2024-01-10T03:03:16;-5.40;17.80
47521;DHT22;32291;52.010;4.446;2024-01-10T03:04:23;-5.40;19.80
47521;DHT22;32291;52.010;4.446;2024-01-10T03:05:30;-5.40;21.40
47521;DHT22;32291;52.010;4.446;2024-01-10T03:06:37;-5.40;22.10
47521;DHT22;32291;52.010;4.446;2024-01-10T03:07:44;-5.40;23.40
47521;DHT22;32291;52.010;4.446;2024-01-10T03:08:51;-5.30;26.30
47521;DHT22;32291;52.010;4.446;2024-01-10T03:09:58;-5.30;26.70
47521;DHT22;32291;52.010;4.446;2024-01-10T03:11:00;-5.30;27.50
47521;DHT22;32291;52.010;4.446;2024-01-10T03:12:02;-5.30;29.50
47521;DHT22;32291;52.010;4.446;2024-01-10T03:13:12;-5.30;30.20
47521;DHT22;32291;52.010;4.446;2024-01-10T03:14:19;-5.30;29.20
47521;DHT22;32291;52.010;4.446;2024-01-10T03:15:26;-5.20;30.20
47521;DHT22;32291;52.010;4.446;2024-01-10T03:16:28;-5.20;31.40
47521;DHT22;32291;52.010;4.446;2024-01-10T03:17:30;-5.30;31.40
47521;DHT22;32291;52.010;4.446;2024-01-10T03:18:35;-5.20;31.40
47521;DHT22;32291;52.010;4.446;2024-01-10T03:19:42;-5.20;32.80
47521;DHT22;32291;52.010;4.446;2024-01-10T03:20:50;-5.20;32.90
47521;DHT22;32291;52.010;4.446;2024-01-10T03:21:57;-5.20;33.70
47521;DHT22;32291;52.010;4.446;2024-01-10T03:23:04;-5.20;33.00
47521;DHT22;32291;52.010;4.446;2024-01-10T03:24:11;-5.20;34.60
47521;DHT22;32291;52.010;4.446;2024-01-10T03:25:18;-5.10;33.10
47521;DHT22;32291;52.010;4.446;2024-01-10T03:26:20;-5.10;33.70
47521;DHT22;32291;52.010;4.446;2024-01-10T03:27:22;-5.10;34.50
47521;DHT22;32291;52.010;4.446;2024-01-10T03:28:24;-5.00;33.70
47521;DHT22;32291;52.010;4.446;2024-01-10T03:29:31;-5.10;30.00
47521;DHT22;32291;52.010;4.446;2024-01-10T03:30:38;-5.10;30.00
47521;DHT22;32291;52.010;4.446;2024-01-10T03:31:44;-5.10;30.50
47521;DHT22;32291;52.010;4.446;2024-01-10T03:32:51;-5.10;32.40
47521;DHT22;32291;52.010;4.446;2024-01-10T03:33:58;-5.10;30.70
47521;DHT22;32291;52.010;4.446;2024-01-10T03:35:05;-5.30;28.20
47521;DHT22;32291;52.010;4.446;2024-01-10T03:36:17;-5.20;31.40
47521;DHT22;32291;52.010;4.446;2024-01-10T03:37:24;-5.20;32.70
47521;DHT22;32291;52.010;4.446;2024-01-10T03:38:26;-5.20;32.60
47521;DHT22;32291;52.010;4.446;2024-01-10T03:39:33;-5.20;33.20
47521;DHT22;32291;52.010;4.446;2024-01-10T03:40:40;-5.20;31.80
47521;DHT22;32291;52.010;4.446;2024-01-10T03:41:47;-5.30;31.00
47521;DHT22;32291;52.010;4.446;2024-01-10T03:42:54;-5.30;32.40
47521;DHT22;32291;52.010;4.446;2024-01-10T03:44:01;-5.30;34.10
47521;DHT22;32291;52.010;4.446;2024-01-10T03:45:08;-5.30;36.50
47521;DHT22;32291;52.010;4.446;2024-01-10T03:46:12;-5.30;35.30
47521;DHT22;32291;52.010;4.446;2024-01-10T03:47:15;-5.30;38.20
47521;DHT22;32291;52.010;4.446;2024-01-10T03:48:17;-5.30;36.50
47521;DHT22;32291;52.010;4.446;2024-01-10T03:49:24;-5.30;37.50
47521;DHT22;32291;52.010;4.446;2024-01-10T03:50:31;-5.30;41.20
47521;DHT22;32291;52.010;4.446;2024-01-10T03:51:38;-5.30;41.30
47521;DHT22;32291;52.010;4.446;2024-01-10T03:52:47;-5.30;40.70
47521;DHT22;32291;52.010;4.446;2024-01-10T03:53:54;-5.40;39.60
47521;DHT22;32291;52.010;4.446;2024-01-10T03:55:02;-5.40;43.00
47521;DHT22;32291;52.010;4.446;2024-01-10T03:56:05;-5.40;43.50
47521;DHT22;32291;52.010;4.446;2024-01-10T03:57:07;-5.30;46.20
47521;DHT22;32291;52.010;4.446;2024-01-10T03:58:09;-5.40;42.90
47521;DHT22;32291;52.010;4.446;2024-01-10T03:59:16;-5.40;43.30
47521;DHT22;32291;52.010;4.446;2024-01-10T04:00:18;-5.40;45.40
47521;DHT22;32291;52.010;4.446;2024-01-10T04:01:25;-5.40;45.90
47521;DHT22;32291;52.010;4.446;2024-01-10T04:02:32;-5.40;46.60
47521;DHT22;32291;52.010;4.446;2024-01-10T04:03:39;-5.40;44.70
47521;DHT22;32291;52.010;4.446;2024-01-10T04:04:50;-5.40;44.90
47521;DHT22;32291;52.010;4.446;2024-01-10T04:05:52;-5.40;44.50
47521;DHT22;32291;52.010;4.446;2024-01-10T04:06:59;-5.40;46.20
47521;DHT22;32291;52.010;4.446;2024-01-10T04:08:02;-5.40;46.50
47521;DHT22;32291;52.010;4.446;2024-01-10T04:09:05;-5.50;45.70
47521;DHT22;32291;52.010;4.446;2024-01-10T04:10:15;-5.40;47.30
47521;DHT22;32291;52.010;4.446;2024-01-10T04:11:22;-5.50;47.20
47521;DHT22;32291;52.010;4.446;2024-01-10T04:12:29;-5.50;46.70
47521;DHT22;32291;52.010;4.446;2024-01-10T04:13:36;-5.50;49.10
47521;DHT22;32291;52.010;4.446;2024-01-10T04:14:43;-5.50;48.30
47521;DHT22;32291;52.010;4.446;2024-01-10T04:15:45;-5.60;47.10
47521;DHT22;32291;52.010;4.446;2024-01-10T04:16:48;-5.60;49.60
47521;DHT22;32291;52.010;4.446;2024-01-10T04:17:55;-5.60;52.10
47521;DHT22;32291;52.010;4.446;2024-01-10T04:19:01;-5.50;56.50
47521;DHT22;32291;52.010;4.446;2024-01-10T04:20:09;-5.40;57.60
47521;DHT22;32291;52.010;4.446;2024-01-10T04:21:12;-5.50;58.50
47521;DHT22;32291;52.010;4.446;2024-01-10T04:22:19;-5.50;56.10
47521;DHT22;32291;52.010;4.446;2024-01-10T04:23:25;-5.40;57.80
47521;DHT22;32291;52.010;4.446;2024-01-10T04:24:32;-5.50;59.30
47521;DHT22;32291;52.010;4.446;2024-01-10T04:25:39;-5.50;58.50
47521;DHT22;32291;52.010;4.446;2024-01-10T04:26:41;-5.50;57.80
47521;DHT22;32291;52.010;4.446;2024-01-10T04:27:51;-5.50;59.10
47521;DHT22;32291;52.010;4.446;2024-01-10T04:28:58;-5.40;64.30
47521;DHT22;32291;52.010;4.446;2024-01-10T04:30:00;-5.40;62.20
47521;DHT22;32291;52.010;4.446;2024-01-10T04:31:02;-5.30;61.70
47521;DHT22;32291;52.010;4.446;2024-01-10T04:32:09;-5.40;58.80
47521;DHT22;32291;52.010;4.446;2024-01-10T04:33:16;-5.40;58.60
47521;DHT22;32291;52.010;4.446;2024-01-10T04:34:23;-5.40;56.70
47521;DHT22;32291;52.010;4.446;2024-01-10T04:35:31;-5.40;57.70
47521;DHT22;32291;52.010;4.446;2024-01-10T04:36:33;-5.40;55.20
47521;DHT22;32291;52.010;4.446;2024-01-10T04:37:40;-5.40;58.10
47521;DHT22;32291;52.010;4.446;2024-01-10T04:38:47;-5.40;58.70
47521;DHT22;32291;52.010;4.446;2024-01-10T04:39:54;-5.40;59.00
47521;DHT22;32291;52.010;4.446;2024-01-10T04:40:56;-5.30;59.10
47521;DHT22;32291;52.010;4.446;2024-01-10T04:42:03;-5.40;58.60
47521;DHT22;32291;52.010;4.446;2024-01-10T04:43:11;-5.40;59.50
47521;DHT22;32291;52.010;4.446;2024-01-10T04:44:18;-5.40;58.10
47521;DHT22;32291;52.010;4.446;2024-01-10T04:45:20;-5.30;59.70
47521;DHT22;32291;52.010;4.446;2024-01-10T04:46:27;-5.30;59.80
47521;DHT22;32291;52.010;4.446;2024-01-10T04:47:34;-5.30;62.10
47521;DHT22;32291;52.010;4.446;2024-01-10T04:48:36;-5.30;58.60
47521;DHT22;32291;52.010;4.446;2024-01-10T04:49:44;-5.30;58.00
47521;DHT22;32291;52.010;4.446;2024-01-10T04:50:46;-5.20;57.30
47521;DHT22;32291;52.010;4.446;2024-01-10T04:51:53;-5.20;55.60
47521;DHT22;32291;52.010;4.446;2024-01-10T04:53:00;-5.30;53.60
47521;DHT22;32291;52.010;4.446;2024-01-10T04:54:07;-5.30;51.80
47521;DHT22;32291;52.010;4.446;2024-01-10T04:55:14;-5.30;51.70
47521;DHT22;32291;52.010;4.446;2024-01-10T04:56:20;-5.30;52.50
47521;DHT22;32291;52.010;4.446;2024-01-10T04:57:27;-5.30;52.90
47521;DHT22;32291;52.010;4.446;2024-01-10T04:58:34;-5.20;54.30
47521;DHT22;32291;52.010;4.446;2024-01-10T04:59:38;-5.30;52.70
47521;DHT22;32291;52.010;4.446;2024-01-10T05:00:45;-5.30;53.70
47521;DHT22;32291;52.010;4.446;2024-01-10T05:01:52;-5.10;52.10
47521;DHT22;32291;52.010;4.446;2024-01-10T05:02:59;-5.30;53.40
47521;DHT22;32291;52.010;4.446;2024-01-10T05:04:01;-5.30;52.30
47521;DHT22;32291;52.010;4.446;2024-01-10T05:05:08;-5.20;49.30
47521;DHT22;32291;52.010;4.446;2024-01-10T05:06:15;-5.30;50.00
47521;DHT22;32291;52.010;4.446;2024-01-10T05:07:17;-5.30;49.40
47521;DHT22;32291;52.010;4.446;2024-01-10T05:08:24;-5.30;48.50
47521;DHT22;32291;52.010;4.446;2024-01-10T05:09:32;-5.30;48.70
47521;DHT22;32291;52.010;4.446;2024-01-10T05:10:39;-5.30;47.80
47521;DHT22;32291;52.010;4.446;2024-01-10T05:11:46;-5.40;47.70
47521;DHT22;32291;52.010;4.446;2024-01-10T05:12:54;-5.40;48.80
47521;DHT22;32291;52.010;4.446;2024-01-10T05:14:01;-5.40;47.60
47521;DHT22;32291;52.010;4.446;2024-01-10T05:15:09;-5.40;49.50
47521;DHT22;32291;52.010;4.446;2024-01-10T05:16:11;-5.40;51.40
47521;DHT22;32291;52.010;4.446;2024-01-10T05:17:18;-5.40;50.30
47521;DHT22;32291;52.010;4.446;2024-01-10T05:18:21;-5.40;51.20
47521;DHT22;32291;52.010;4.446;2024-01-10T05:19:28;-5.40;51.20
47521;DHT22;32291;52.010;4.446;2024-01-10T05:20:31;-5.50;51.20
47521;DHT22;32291;52.010;4.446;2024-01-10T05:21:38;-5.50;50.30
47521;DHT22;32291;52.010;4.446;2024-01-10T05:22:46;-5.50;52.20
47521;DHT22;32291;52.010;4.446;2024-01-10T05:23:48;-5.50;54.30
47521;DHT22;32291;52.010;4.446;2024-01-10T05:24:55;-5.50;54.30
47521;DHT22;32291;52.010;4.446;2024-01-10T05:25:57;-5.50;54.70
47521;DHT22;32291;52.010;4.446;2024-01-10T05:27:04;-5.50;53.30
47521;DHT22;32291;52.010;4.446;2024-01-10T05:28:12;-5.50;55.50
47521;DHT22;32291;52.010;4.446;2024-01-10T05:29:14;-5.50;52.50
47521;DHT22;32291;52.010;4.446;2024-01-10T05:30:21;-5.50;53.00
47521;DHT22;32291;52.010;4.446;2024-01-10T05:31:29;-5.60;51.80
47521;DHT22;32291;52.010;4.446;2024-01-10T05:32:35;-5.60;52.00
47521;DHT22;32291;52.010;4.446;2024-01-10T05:33:43;-5.60;54.70
47521;DHT22;32291;52.010;4.446;2024-01-10T05:34:50;-5.60;55.70
47521;DHT22;32291;52.010;4.446;2024-01-10T05:35:53;-5.60;56.90
47521;DHT22;32291;52.010;4.446;2024-01-10T05:37:00;-5.60;56.10
47521;DHT22;32291;52.010;4.446;2024-01-10T05:38:06;-5.50;61.50
47521;DHT22;32291;52.010;4.446;2024-01-10T05:39:17;-5.50;58.50
47521;DHT22;32291;52.010;4.446;2024-01-10T05:40:27;-5.50;56.30
47521;DHT22;32291;52.010;4.446;2024-01-10T05:41:33;-5.50;55.40
47521;DHT22;32291;52.010;4.446;2024-01-10T05:42:36;-5.50;54.30
47521;DHT22;32291;52.010;4.446;2024-01-10T05:43:44;-5.50;54.00
47521;DHT22;32291;52.010;4.446;2024-01-10T05:44:51;-5.50;55.40
47521;DHT22;32291;52.010;4.446;2024-01-10T05:45:59;-5.50;53.50
47521;DHT22;32291;52.010;4.446;2024-01-10T05:47:06;-5.60;52.60
47521;DHT22;32291;52.010;4.446;2024-01-10T05:48:13;-5.40;52.80
47521;DHT22;32291;52.010;4.446;2024-01-10T05:49:20;-5.60;51.70
47521;DHT22;32291;52.010;4.446;2024-01-10T05:50:28;-5.60;50.60
47521;DHT22;32291;52.010;4.446;2024-01-10T05:51:35;-5.60;52.50
47521;DHT22;32291;52.010;4.446;2024-01-10T05:52:43;-5.60;53.60
47521;DHT22;32291;52.010;4.446;2024-01-10T05:53:50;-5.60;53.90
47521;DHT22;32291;52.010;4.446;2024-01-10T05:54:52;-5.60;54.50
47521;DHT22;32291;52.010;4.446;2024-01-10T05:55:59;-5.60;52.60
47521;DHT22;32291;52.010;4.446;2024-01-10T05:57:07;-5.60;52.70
47521;DHT22;32291;52.010;4.446;2024-01-10T05:58:10;-5.60;55.90
47521;DHT22;32291;52.010;4.446;2024-01-10T05:59:12;-5.60;56.00
47521;DHT22;32291;52.010;4.446;2024-01-10T06:00:15;-5.60;55.80
47521;DHT22;32291;52.010;4.446;2024-01-10T06:01:23;-5.60;56.90
47521;DHT22;32291;52.010;4.446;2024-01-10T06:02:30;-5.60;55.80
47521;DHT22;32291;52.010;4.446;2024-01-10T06:03:37;-5.60;53.60
47521;DHT22;32291;52.010;4.446;2024-01-10T06:04:39;-5.60;52.20
47521;DHT22;32291;52.010;4.446;2024-01-10T06:05:45;-5.60;53.90
47521;DHT22;32291;52.010;4.446;2024-01-10T06:06:52;-5.60;54.50
47521;DHT22;32291;52.010;4.446;2024-01-10T06:07:59;-5.60;52.30
47521;DHT22;32291;52.010;4.446;2024-01-10T06:09:06;-5.60;50.80
47521;DHT22;32291;52.010;4.446;2024-01-10T06:10:20;-5.60;50.50
47521;DHT22;32291;52.010;4.446;2024-01-10T06:11:26;-5.60;50.90
47521;DHT22;32291;52.010;4.446;2024-01-10T06:12:34;-5.60;49.50
47521;DHT22;32291;52.010;4.446;2024-01-10T06:13:41;-5.60;50.40
47521;DHT22;32291;52.010;4.446;2024-01-10T06:14:48;-5.60;51.80
47521;DHT22;32291;52.010;4.446;2024-01-10T06:15:57;-5.70;50.30
47521;DHT22;32291;52.010;4.446;2024-01-10T06:16:59;-5.60;52.70
47521;DHT22;32291;52.010;4.446;2024-01-10T06:18:03;-5.60;51.80
47521;DHT22;32291;52.010;4.446;2024-01-10T06:19:11;-5.60;50.80
47521;DHT22;32291;52.010;4.446;2024-01-10T06:20:13;-5.60;54.30
47521;DHT22;32291;52.010;4.446;2024-01-10T06:21:15;-5.60;55.80
47521;DHT22;32291;52.010;4.446;2024-01-10T06:22:22;-5.60;54.10
47521;DHT22;32291;52.010;4.446;2024-01-10T06:23:31;-5.60;53.50
47521;DHT22;32291;52.010;4.446;2024-01-10T06:24:33;-5.60;52.10
47521;DHT22;32291;52.010;4.446;2024-01-10T06:25:40;-5.60;51.80
47521;DHT22;32291;52.010;4.446;2024-01-10T06:26:43;-5.60;53.00
47521;DHT22;32291;52.010;4.446;2024-01-10T06:27:49;-5.60;53.20
47521;DHT22;32291;52.010;4.446;2024-01-10T06:28:57;-5.60;50.90
47521;DHT22;32291;52.010;4.446;2024-01-10T06:30:05;-5.60;53.90
47521;DHT22;32291;52.010;4.446;2024-01-10T06:31:09;-5.60;52.60
47521;DHT22;32291;52.010;4.446;2024-01-10T06:32:15;-5.60;52.40
47521;DHT22;32291;52.010;4.446;2024-01-10T06:33:22;-5.60;52.50
47521;DHT22;32291;52.010;4.446;2024-01-10T06:34:29;-5.60;50.10
47521;DHT22;32291;52.010;4.446;2024-01-10T06:35:36;-5.60;52.80
47521;DHT22;32291;52.010;4.446;2024-01-10T06:36:39;-5.60;53.30
47521;DHT22;32291;52.010;4.446;2024-01-10T06:37:46;-5.60;52.90
47521;DHT22;32291;52.010;4.446;2024-01-10T06:38:53;-5.60;54.10
47521;DHT22;32291;52.010;4.446;2024-01-10T06:39:55;-5.50;56.40
47521;DHT22;32291;52.010;4.446;2024-01-10T06:40:58;-5.50;52.90
47521;DHT22;32291;52.010;4.446;2024-01-10T06:42:05;-5.50;51.50
47521;DHT22;32291;52.010;4.446;2024-01-10T06:43:07;-5.50;52.70
47521;DHT22;32291;52.010;4.446;2024-01-10T06:44:15;-5.50;51.70
47521;DHT22;32291;52.010;4.446;2024-01-10T06:45:20;-5.50;51.80
47521;DHT22;32291;52.010;4.446;2024-01-10T06:46:27;-5.50;51.30
47521;DHT22;32291;52.010;4.446;2024-01-10T06:47:34;-5.50;49.70
47521;DHT22;32291;52.010;4.446;2024-01-10T06:48:37;-5.50;49.70
47521;DHT22;32291;52.010;4.446;2024-01-10T06:49:39;-5.50;47.80
47521;DHT22;32291;52.010;4.446;2024-01-10T06:50:47;-5.60;48.20
47521;DHT22;32291;52.010;4.446;2024-01-10T06:51:49;-5.50;48.90
47521;DHT22;32291;52.010;4.446;2024-01-10T06:52:56;-5.60;48.50
47521;DHT22;32291;52.010;4.446;2024-01-10T06:54:03;-5.50;51.20
47521;DHT22;32291;52.010;4.446;2024-01-10T06:55:07;-5.60;51.50
47521;DHT22;32291;52.010;4.446;2024-01-10T06:56:14;-5.60;50.70
47521;DHT22;32291;52.010;4.446;2024-01-10T06:57:16;-5.60;50.20
47521;DHT22;32291;52.010;4.446;2024-01-10T06:58:24;-5.60;49.20
47521;DHT22;32291;52.010;4.446;2024-01-10T06:59:26;-5.60;47.90